Time;durP1;ratioP1;P1;durP2;ratioP2;P2;SDS_P1;SDS_P2;PMS_P1;PMS_P2;Temp;Humidity;BMP_temperature;BMP_pressure;BME280_temperature;BME280_humidity;BME280_pressure;Samples;Min_cycle;Max_cycle;Signal;HPM_P1;HPM_P2
2022/08/04 00:01:01;;;;;;;0.00;0.00;;;21.20;99.90;;;;;;4934433;29;20448;-84
2022/08/04 00:03:37;;;;;;;0.00;0.00;;;21.20;99.90;;;;;;4959217;28;20043;-82
2022/08/04 00:06:10;;;;;;;0.00;0.00;;;21.30;99.90;;;;;;4950478;28;20073;-83
2022/08/04 00:08:45;;;;;;;0.00;0.00;;;21.30;99.90;;;;;;4950606;28;20070;-83
2022/08/04 00:11:18;;;;;;;0.00;0.00;;;21.30;99.90;;;;;;4957187;28;20105;-83
2022/08/04 00:13:52;;;;;;;0.00;0.00;;;21.30;99.90;;;;;;4948387;28;20117;-83
2022/08/04 00:16:31;;;;;;;0.00;0.00;;;21.30;99.90;;;;;;4951909;28;20499;-83
2022/08/04 00:19:10;;;;;;;0.00;0.00;;;21.60;99.90;;;;;;4949486;28;20047;-83
2022/08/04 00:21:40;;;;;;;0.00;0.00;;;21.60;99.90;;;;;;4956365;28;20473;-84
2022/08/04 00:24:08;;;;;;;0.00;0.00;;;21.70;99.90;;;;;;4951881;28;20051;-83
2022/08/04 00:26:39;;;;;;;0.00;0.00;;;21.80;99.90;;;;;;4948717;28;20054;-83
2022/08/04 00:29:06;;;;;;;0.00;0.00;;;21.90;99.90;;;;;;4953893;28;20522;-84
2022/08/04 00:31:34;;;;;;;0.00;0.00;;;21.80;99.90;;;;;;4954139;28;20059;-83
2022/08/04 00:34:24;;;;;;;0.00;0.00;;;21.80;99.90;;;;;;4948619;28;20074;-83
2022/08/04 00:36:53;;;;;;;0.00;0.00;;;21.90;99.90;;;;;;4956371;28;20051;-83
2022/08/04 00:39:20;;;;;;;0.00;0.00;;;21.90;99.90;;;;;;4950894;28;20055;-84
2022/08/04 00:42:12;;;;;;;0.00;0.00;;;21.90;99.90;;;;;;4938112;28;20046;-82
2022/08/04 00:44:58;;;;;;;0.00;0.00;;;21.90;99.90;;;;;;4955032;28;20047;-84
2022/08/04 00:47:39;;;;;;;0.00;0.00;;;21.80;99.90;;;;;;4953416;28;20098;-82
2022/08/04 00:50:16;;;;;;;0.00;0.00;;;21.70;99.90;;;;;;4949018;28;20055;-82
2022/08/04 00:52:55;;;;;;;0.00;0.00;;;21.70;99.90;;;;;;4949286;28;20077;-84
2022/08/04 00:55:31;;;;;;;;;;;21.70;99.90;;;;;;4947242;28;20050;-83
2022/08/04 00:58:15;;;;;;;0.00;0.00;;;21.70;99.90;;;;;;4955736;28;20376;-83
2022/08/04 01:00:53;;;;;;;0.00;0.00;;;21.60;99.90;;;;;;4953415;28;20040;-83
2022/08/04 01:03:31;;;;;;;0.00;0.00;;;21.60;99.90;;;;;;4933550;28;20058;-83
2022/08/04 01:06:10;;;;;;;0.00;0.00;;;21.60;99.90;;;;;;4949686;28;20488;-83
2022/08/04 01:09:01;;;;;;;0.00;0.00;;;21.60;99.90;;;;;;4948335;28;20043;-84
2022/08/04 01:11:41;;;;;;;0.00;0.00;;;21.50;99.90;;;;;;4952384;28;20307;-83
2022/08/04 01:14:45;;;;;;;0.00;0.00;;;21.40;99.90;;;;;;4955896;28;20035;-83
2022/08/04 01:17:19;;;;;;;0.00;0.00;;;21.30;99.90;;;;;;4951978;28;22323;-84
2022/08/04 01:20:00;;;;;;;0.00;0.00;;;21.20;99.90;;;;;;4954279;28;20081;-84
2022/08/04 01:23:07;;;;;;;0.00;0.00;;;21.20;99.90;;;;;;4954589;28;20047;-83
2022/08/04 01:25:53;;;;;;;0.00;0.00;;;21.20;99.90;;;;;;4875621;28;20046;-82
2022/08/04 01:28:30;;;;;;;0.00;0.00;;;21.10;99.90;;;;;;4958048;28;20047;-84
2022/08/04 01:31:06;;;;;;;0.00;0.00;;;21.00;99.90;;;;;;4953177;28;20050;-83
2022/08/04 01:33:40;;;;;;;0.00;0.00;;;21.00;99.90;;;;;;4952524;28;20046;-82
2022/08/04 01:36:32;;;;;;;0.00;0.00;;;21.00;99.90;;;;;;4951256;28;20128;-83
2022/08/04 01:39:39;;;;;;;0.00;0.00;;;21.00;99.90;;;;;;4961494;28;20043;-84
2022/08/04 01:41:48;;;;;;;0.00;0.00;;;21.00;99.90;;;;;;4953023;28;20043;-84
2022/08/04 01:44:27;;;;;;;0.00;0.00;;;20.90;99.90;;;;;;4938259;28;20535;-84
2022/08/04 01:46:55;;;;;;;0.00;0.00;;;20.70;99.90;;;;;;4955007;28;20428;-84
2022/08/04 01:49:28;;;;;;;0.00;0.00;;;20.60;99.90;;;;;;4959601;28;20054;-83
2022/08/04 01:52:01;;;;;;;0.00;0.00;;;20.60;99.90;;;;;;4954639;28;20039;-83
2022/08/04 01:54:30;;;;;;;0.00;0.00;;;20.60;99.90;;;;;;4950296;28;20047;-83
2022/08/04 01:56:57;;;;;;;;;;;20.70;99.90;;;;;;4955074;28;20094;-83
2022/08/04 01:59:27;;;;;;;0.00;0.00;;;20.70;99.90;;;;;;4940747;28;19993;-83
2022/08/04 02:01:55;;;;;;;0.00;0.00;;;20.70;99.90;;;;;;4940102;28;20126;-84
2022/08/04 02:04:22;;;;;;;0.00;0.00;;;20.70;99.90;;;;;;4936711;28;20059;-83
2022/08/04 02:07:01;;;;;;;0.00;0.00;;;20.60;99.90;;;;;;4954819;28;20050;-84
2022/08/04 02:09:37;;;;;;;0.00;0.00;;;20.50;99.90;;;;;;4954957;28;20055;-83
2022/08/04 02:12:31;;;;;;;0.00;0.00;;;20.50;99.90;;;;;;4940955;28;20086;-83
2022/08/04 02:15:02;;;;;;;0.00;0.00;;;20.40;99.90;;;;;;4954439;28;20047;-83
2022/08/04 02:17:37;;;;;;;0.00;0.00;;;20.40;99.90;;;;;;4961783;28;20535;-84
2022/08/04 02:20:07;;;;;;;0.00;0.00;;;20.40;99.90;;;;;;4950423;28;20051;-82
2022/08/04 02:22:40;;;;;;;0.00;0.00;;;20.50;99.90;;;;;;4935604;29;20098;-83
2022/08/04 02:25:09;;;;;;;0.00;0.00;;;20.50;99.90;;;;;;4954000;28;20055;-83
2022/08/04 02:27:55;;;;;;;0.00;0.00;;;20.40;99.90;;;;;;4954693;28;20054;-83
2022/08/04 02:30:33;;;;;;;0.00;0.00;;;20.50;99.90;;;;;;4956684;28;20054;-83
2022/08/04 02:33:03;;;;;;;0.00;0.00;;;20.50;99.90;;;;;;4953237;28;20051;-83
2022/08/04 02:35:35;;;;;;;0.00;0.00;;;20.40;99.90;;;;;;4953410;28;20703;-84
2022/08/04 02:38:15;;;;;;;0.00;0.00;;;22.40;99.90;;;;;;4956712;28;20043;-83
2022/08/04 02:40:43;;;;;;;0.00;0.00;;;20.30;99.90;;;;;;4957073;28;20094;-83
2022/08/04 02:43:11;;;;;;;0.00;0.00;;;20.30;99.90;;;;;;4956260;28;20097;-83
2022/08/04 02:45:41;;;;;;;0.00;0.00;;;20.30;99.90;;;;;;4947956;28;20051;-83
2022/08/04 02:48:13;;;;;;;0.00;0.00;;;20.30;99.90;;;;;;4956031;28;20055;-83
2022/08/04 02:50:59;;;;;;;0.00;0.00;;;20.30;99.90;;;;;;4955209;28;20093;-82
2022/08/04 02:53:27;;;;;;;0.00;0.00;;;20.30;99.90;;;;;;4952349;28;20081;-83
2022/08/04 02:55:56;;;;;;;0.00;0.00;;;20.30;99.90;;;;;;4955739;28;20753;-83
2022/08/04 02:58:30;;;;;;;0.00;0.00;;;20.30;99.90;;;;;;4952296;28;20437;-83
2022/08/04 03:00:57;;;;;;;0.00;0.00;;;20.30;99.90;;;;;;4956609;28;20452;-83
2022/08/04 03:03:34;;;;;;;0.00;0.00;;;20.20;99.90;;;;;;4955386;28;20031;-83
2022/08/04 03:06:27;;;;;;;0.00;0.00;;;20.20;99.90;;;;;;4950542;28;20055;-83
2022/08/04 03:09:26;;;;;;;0.00;0.00;;;20.20;99.90;;;;;;4953499;28;20051;-83
2022/08/04 03:12:32;;;;;;;0.00;0.00;;;20.20;99.90;;;;;;4953188;28;20057;-83
2022/08/04 03:15:42;;;;;;;0.00;0.00;;;20.20;99.90;;;;;;4935745;29;20110;-83
2022/08/04 03:18:46;;;;;;;0.00;0.00;;;20.10;99.90;;;;;;4953957;28;20035;-83
2022/08/04 03:21:44;;;;;;;0.00;0.00;;;20.00;99.90;;;;;;4950930;28;20571;-83
2022/08/04 03:24:42;;;;;;;0.00;0.00;;;19.90;99.90;;;;;;4958202;28;20043;-83
2022/08/04 03:27:34;;;;;;;0.00;0.00;;;20.00;99.90;;;;;;4955565;28;20151;-84
2022/08/04 03:30:10;;;;;;;0.00;0.00;;;19.90;99.90;;;;;;4944638;28;20464;-83
2022/08/04 03:33:08;;;;;;;0.00;0.00;;;19.90;99.90;;;;;;4939000;28;20051;-82
2022/08/04 03:36:23;;;;;;;0.00;0.00;;;19.90;99.90;;;;;;4938229;28;20058;-84
2022/08/04 03:39:35;;;;;;;0.00;0.00;;;19.90;99.90;;;;;;4942860;28;20063;-83
2022/08/04 03:42:24;;;;;;;0.00;0.00;;;19.90;99.90;;;;;;4950455;28;20054;-83
2022/08/04 03:45:30;;;;;;;0.00;0.00;;;19.90;99.90;;;;;;4950073;28;20043;-83
2022/08/04 03:48:26;;;;;;;0.00;0.00;;;19.90;99.90;;;;;;4942105;28;20176;-83
2022/08/04 03:54:32;;;;;;;0.00;0.00;;;19.70;99.90;;;;;;4951094;28;20102;-83
2022/08/04 03:57:37;;;;;;;0.00;0.00;;;19.70;99.90;;;;;;4930354;28;20543;-83
2022/08/04 04:00:08;;;;;;;0.00;0.00;;;19.70;99.90;;;;;;4934468;28;20052;-84
2022/08/04 04:03:05;;;;;;;0.00;0.00;;;19.60;99.90;;;;;;4949360;28;20503;-83
2022/08/04 04:06:16;;;;;;;0.00;0.00;;;19.70;99.90;;;;;;4947179;28;20047;-83
2022/08/04 04:09:16;;;;;;;0.00;0.00;;;19.70;99.90;;;;;;4905435;29;20048;-83
2022/08/04 04:12:19;;;;;;;0.00;0.00;;;19.70;99.90;;;;;;4880890;29;20064;-83
2022/08/04 04:15:00;;;;;;;0.00;0.00;;;19.70;99.90;;;;;;4943335;28;20067;-84
2022/08/04 04:17:48;;;;;;;0.00;0.00;;;19.70;99.90;;;;;;4955463;28;20566;-83
2022/08/04 04:20:29;;;;;;;0.00;0.00;;;19.60;99.90;;;;;;4943333;28;20051;-83
2022/08/04 04:23:07;;;;;;;0.00;0.00;;;19.70;99.90;;;;;;4952620;28;20047;-82
2022/08/04 04:25:54;;;;;;;0.00;0.00;;;19.70;99.90;;;;;;4956164;28;20051;-84
2022/08/04 04:28:54;;;;;;;0.00;0.00;;;19.70;99.90;;;;;;4952702;28;20032;-83
2022/08/04 04:31:36;;;;;;;0.00;0.00;;;19.60;99.90;;;;;;4955851;28;20050;-83
2022/08/04 04:34:18;;;;;;;0.00;0.00;;;19.60;99.90;;;;;;4951685;28;20043;-83
2022/08/04 04:36:57;;;;;;;0.00;0.00;;;19.70;99.90;;;;;;4948983;28;20141;-83
2022/08/04 04:39:31;;;;;;;0.08;0.08;;;19.70;99.90;;;;;;4948359;28;20055;-83
2022/08/04 04:42:14;;;;;;;0.00;0.00;;;19.80;99.90;;;;;;4955483;28;20043;-83
2022/08/04 04:45:08;;;;;;;0.00;0.00;;;19.80;99.90;;;;;;4948601;28;20047;-84
2022/08/04 04:47:44;;;;;;;0.00;0.00;;;19.80;99.90;;;;;;4950806;28;20043;-83
2022/08/04 04:50:43;;;;;;;0.00;0.00;;;19.90;99.90;;;;;;4948787;28;20062;-83
2022/08/04 04:53:19;;;;;;;0.00;0.00;;;20.10;99.90;;;;;;4951571;28;20043;-83
2022/08/04 04:55:52;;;;;;;0.00;0.00;;;20.10;99.90;;;;;;4949082;28;20302;-84
2022/08/04 04:58:20;;;;;;;0.00;0.00;;;20.20;99.90;;;;;;4934754;28;20035;-84
2022/08/04 05:01:15;;;;;;;0.00;0.00;;;20.30;99.90;;;;;;4951799;28;20070;-84
2022/08/04 05:04:01;;;;;;;0.00;0.00;;;20.40;99.90;;;;;;4925532;28;20051;-83
2022/08/04 05:06:45;;;;;;;0.00;0.00;;;20.50;99.90;;;;;;4949867;28;20086;-83
2022/08/04 05:09:37;;;;;;;0.00;0.00;;;20.50;99.90;;;;;;4945083;28;20656;-83
2022/08/04 05:12:31;;;;;;;0.00;0.00;;;20.60;99.90;;;;;;4952489;28;20050;-83
2022/08/04 05:15:20;;;;;;;0.00;0.00;;;20.70;99.90;;;;;;4952722;28;20420;-83
2022/08/04 05:17:55;;;;;;;0.00;0.00;;;20.80;99.90;;;;;;4952248;28;20079;-83
2022/08/04 05:20:26;;;;;;;0.00;0.00;;;20.90;99.90;;;;;;4945437;28;20050;-83
2022/08/04 05:22:56;;;;;;;0.00;0.00;;;20.90;99.90;;;;;;4950414;28;20428;-82
2022/08/04 05:25:31;;;;;;;0.00;0.00;;;21.00;99.90;;;;;;4953776;28;20055;-83
2022/08/04 05:28:03;;;;;;;0.00;0.00;;;21.00;99.90;;;;;;4953479;28;20047;-83
2022/08/04 05:30:37;;;;;;;0.00;0.00;;;21.00;99.90;;;;;;4947392;28;20043;-83
2022/08/04 05:33:11;;;;;;;0.00;0.00;;;21.00;99.90;;;;;;4952506;28;20043;-83
2022/08/04 05:35:42;;;;;;;0.00;0.00;;;21.00;99.90;;;;;;4935942;29;20051;-83
2022/08/04 05:38:34;;;;;;;0.00;0.00;;;21.00;99.90;;;;;;4946218;28;20051;-83
2022/08/04 05:41:02;;;;;;;0.00;0.00;;;21.20;99.90;;;;;;4936843;28;20542;-83
2022/08/04 05:43:29;;;;;;;0.00;0.00;;;21.30;99.90;;;;;;4950822;28;20051;-82
2022/08/04 05:45:57;;;;;;;0.00;0.00;;;21.40;99.90;;;;;;4953290;28;20050;-83
2022/08/04 05:48:26;;;;;;;0.00;0.00;;;21.50;99.90;;;;;;4954910;28;20046;-83
2022/08/04 05:50:54;;;;;;;0.00;0.00;;;21.60;99.90;;;;;;4959092;28;20078;-82
2022/08/04 05:53:27;;;;;;;0.00;0.00;;;21.60;99.90;;;;;;4950170;28;20043;-83
2022/08/04 05:55:56;;;;;;;0.00;0.00;;;21.60;99.90;;;;;;4949405;28;20047;-83
2022/08/04 05:58:28;;;;;;;0.00;0.00;;;22.70;99.90;;;;;;4952819;28;20459;-83
2022/08/04 06:00:55;;;;;;;0.00;0.00;;;;;;;;;;4954930;28;20624;-83
2022/08/04 06:03:24;;;;;;;0.00;0.00;;;21.70;99.90;;;;;;4949002;28;20504;-83
2022/08/04 06:05:55;;;;;;;0.00;0.00;;;21.70;99.90;;;;;;4946278;28;20059;-82
2022/08/04 06:08:23;;;;;;;0.00;0.00;;;21.80;99.90;;;;;;4946970;28;20425;-82
2022/08/04 06:10:52;;;;;;;0.00;0.00;;;21.90;99.90;;;;;;4954720;28;20046;-83
2022/08/04 06:13:25;;;;;;;0.00;0.00;;;22.10;99.90;;;;;;4948816;28;20051;-83
2022/08/04 06:16:15;;;;;;;0.00;0.00;;;22.00;99.90;;;;;;4949688;28;20055;-82
2022/08/04 06:19:00;;;;;;;0.00;0.00;;;22.70;99.90;;;;;;4947882;28;20423;-83
2022/08/04 06:21:50;;;;;;;0.00;0.00;;;22.60;99.90;;;;;;4951433;28;20047;-83
2022/08/04 06:24:19;;;;;;;0.00;0.00;;;23.00;99.90;;;;;;4955804;28;20071;-83
2022/08/04 06:26:48;;;;;;;0.00;0.00;;;23.30;99.90;;;;;;4949856;28;20507;-83
2022/08/04 06:29:33;;;;;;;0.00;0.00;;;23.30;99.90;;;;;;4937529;28;20039;-83
2022/08/04 06:32:01;;;;;;;0.00;0.00;;;23.40;99.90;;;;;;4956045;28;20047;-83
2022/08/04 06:34:50;;;;;;;0.00;0.00;;;23.50;99.90;;;;;;4937411;28;20530;-83
2022/08/04 06:37:19;;;;;;;0.00;0.00;;;23.70;99.90;;;;;;4950084;28;20102;-83
2022/08/04 06:40:08;;;;;;;0.00;0.00;;;23.70;99.90;;;;;;4936537;28;20066;-82
2022/08/04 06:42:55;;;;;;;0.00;0.00;;;23.60;99.90;;;;;;4958928;28;20427;-83
2022/08/04 06:45:23;;;;;;;0.00;0.00;;;23.70;99.90;;;;;;4954778;28;20386;-83
2022/08/04 06:47:52;;;;;;;0.00;0.00;;;23.80;99.90;;;;;;4935546;28;20472;-84
2022/08/04 06:50:19;;;;;;;0.00;0.00;;;23.90;99.90;;;;;;4956243;28;20070;-83
2022/08/04 06:53:08;;;;;;;0.00;0.00;;;24.00;99.90;;;;;;4953296;28;20411;-81
2022/08/04 06:55:36;;;;;;;0.00;0.00;;;24.10;99.90;;;;;;4958669;28;20046;-82
2022/08/04 06:58:03;;;;;;;0.00;0.00;;;24.20;99.90;;;;;;4950140;28;20051;-84
2022/08/04 07:00:32;;;;;;;0.00;0.00;;;24.30;99.90;;;;;;4932613;28;20043;-84
2022/08/04 07:02:59;;;;;;;0.00;0.00;;;24.40;99.90;;;;;;4926991;29;20090;-84
2022/08/04 07:05:27;;;;;;;0.00;0.00;;;24.60;99.90;;;;;;4930787;28;20385;-84
2022/08/04 07:07:55;;;;;;;0.00;0.00;;;24.70;99.90;;;;;;4943331;28;20464;-83
2022/08/04 07:10:26;;;;;;;0.00;0.00;;;24.70;99.90;;;;;;4954541;28;20120;-83
2022/08/04 07:12:55;;;;;;;0.00;0.00;;;24.80;99.90;;;;;;4939717;28;20051;-83
2022/08/04 07:15:23;;;;;;;0.00;0.00;;;24.90;99.90;;;;;;4944446;28;20090;-82
2022/08/04 07:17:51;;;;;;;0.00;0.00;;;24.90;99.90;;;;;;4924773;28;20311;-83
2022/08/04 07:20:19;;;;;;;0.00;0.00;;;24.90;99.90;;;;;;4957840;28;20043;-84
2022/08/04 07:23:03;;;;;;;0.00;0.00;;;25.00;99.90;;;;;;4938871;28;20055;-83
2022/08/04 07:25:33;;;;;;;0.00;0.00;;;25.10;99.90;;;;;;4953560;28;20043;-83
2022/08/04 07:28:20;;;;;;;0.00;0.00;;;25.50;99.90;;;;;;4951466;28;20125;-84
2022/08/04 07:30:48;;;;;;;0.00;0.00;;;28.20;99.90;;;;;;4951558;28;20051;-83
2022/08/04 07:33:15;;;;;;;0.00;0.00;;;;;;;;;;4952692;28;20047;-83
2022/08/04 07:35:43;;;;;;;0.00;0.00;;;25.60;99.90;;;;;;4934739;29;20062;-83
2022/08/04 07:38:30;;;;;;;0.00;0.00;;;25.70;99.90;;;;;;4947408;28;20046;-84
2022/08/04 07:41:02;;;;;;;0.00;0.00;;;25.70;99.90;;;;;;4950845;28;20165;-82
2022/08/04 07:43:30;;;;;;;0.00;0.00;;;28.00;99.90;;;;;;4955208;28;20074;-84
2022/08/04 07:45:57;;;;;;;0.00;0.00;;;25.90;99.90;;;;;;4951054;28;20054;-84
2022/08/04 07:48:24;;;;;;;0.00;0.00;;;25.90;99.90;;;;;;4952317;28;20060;-83
2022/08/04 07:50:51;;;;;;;0.00;0.00;;;26.10;99.90;;;;;;4946251;28;20139;-84
2022/08/04 07:53:19;;;;;;;0.00;0.00;;;26.10;99.90;;;;;;4942606;28;20640;-84
2022/08/04 07:56:07;;;;;;;0.00;0.00;;;26.20;99.80;;;;;;4947719;28;20051;-84
2022/08/04 07:58:34;;;;;;;0.00;0.00;;;26.20;99.90;;;;;;4952268;28;20032;-82
2022/08/04 08:01:01;;;;;;;0.00;0.00;;;26.20;99.40;;;;;;4946876;28;20051;-82
2022/08/04 08:03:28;;;;;;;0.00;0.00;;;26.20;99.40;;;;;;4945508;28;20054;-83
2022/08/04 08:05:56;;;;;;;0.00;0.00;;;26.30;99.30;;;;;;4953266;28;20098;-83
2022/08/04 08:08:43;;;;;;;0.00;0.00;;;26.40;99.50;;;;;;4952366;28;20527;-83
2022/08/04 08:11:11;;;;;;;0.00;0.00;;;26.50;98.60;;;;;;4949532;28;20050;-83
2022/08/04 08:13:38;;;;;;;0.00;0.00;;;26.50;98.20;;;;;;4955020;28;20051;-84
2022/08/04 08:16:06;;;;;;;0.00;0.00;;;26.70;98.00;;;;;;4950115;28;20667;-84
2022/08/04 08:18:33;;;;;;;0.00;0.00;;;26.70;97.70;;;;;;4960011;28;20098;-84
2022/08/04 08:21:00;;;;;;;0.00;0.00;;;26.70;97.50;;;;;;4947553;28;20047;-84
2022/08/04 08:23:29;;;;;;;0.00;0.00;;;26.80;98.10;;;;;;4951003;28;20504;-84
2022/08/04 08:25:57;;;;;;;0.00;0.00;;;26.90;97.90;;;;;;4941329;28;20102;-83
2022/08/04 08:28:26;;;;;;;0.00;0.00;;;27.00;98.00;;;;;;4948814;28;20507;-83
2022/08/04 08:30:53;;;;;;;;;;;27.10;97.90;;;;;;4944988;28;20039;-84
2022/08/04 08:33:25;;;;;;;0.00;0.00;;;27.10;97.40;;;;;;4951834;28;19929;-83
2022/08/04 08:36:00;;;;;;;0.00;0.00;;;27.20;98.50;;;;;;4947246;28;20047;-83
2022/08/04 08:38:48;;;;;;;0.00;0.00;;;27.30;98.00;;;;;;4952781;28;20054;-83
2022/08/04 08:41:49;;;;;;;0.00;0.00;;;27.40;97.30;;;;;;4947279;28;20343;-82
2022/08/04 08:45:05;;;;;;;0.00;0.00;;;27.50;96.90;;;;;;4945691;28;20047;-84
2022/08/04 08:47:48;;;;;;;0.00;0.00;;;27.50;97.50;;;;;;4932500;28;20512;-83
2022/08/04 08:50:50;;;;;;;0.00;0.00;;;27.60;97.00;;;;;;4943143;28;20550;-84
2022/08/04 08:53:29;;;;;;;0.00;0.00;;;27.70;95.40;;;;;;4945762;28;20099;-81
2022/08/04 08:56:21;;;;;;;0.00;0.00;;;27.90;97.10;;;;;;4952769;28;20047;-84
2022/08/04 08:59:19;;;;;;;0.00;0.00;;;28.10;95.60;;;;;;4950726;28;20097;-84
2022/08/04 09:02:05;;;;;;;0.00;0.00;;;28.10;95.70;;;;;;4926788;28;20047;-84
2022/08/04 09:04:51;;;;;;;0.00;0.00;;;28.30;96.30;;;;;;4948035;28;20053;-84
2022/08/04 09:07:38;;;;;;;0.00;0.00;;;28.30;94.20;;;;;;4950512;28;20047;-84
2022/08/04 09:10:11;;;;;;;0.00;0.00;;;28.50;94.00;;;;;;4947984;28;20047;-84
2022/08/04 09:12:46;;;;;;;0.00;0.00;;;28.60;93.40;;;;;;4954784;28;20384;-83
2022/08/04 09:15:15;;;;;;;0.00;0.00;;;28.60;93.10;;;;;;4947851;28;20059;-83
2022/08/04 09:17:48;;;;;;;0.00;0.00;;;28.60;93.20;;;;;;4935977;28;20503;-83
2022/08/04 09:20:27;;;;;;;0.00;0.00;;;28.70;93.60;;;;;;4946602;28;20039;-84
2022/08/04 09:23:06;;;;;;;0.00;0.00;;;28.80;92.90;;;;;;4951404;28;20046;-83
2022/08/04 09:25:39;;;;;;;0.00;0.00;;;28.90;92.40;;;;;;4955330;28;20055;-83
2022/08/04 09:28:17;;;;;;;0.00;0.00;;;29.10;93.00;;;;;;4953782;28;20113;-83
2022/08/04 09:31:09;;;;;;;0.00;0.00;;;29.10;93.20;;;;;;4939397;29;20051;-83
2022/08/04 09:33:46;;;;;;;0.00;0.00;;;29.20;91.90;;;;;;4954682;28;20042;-84
2022/08/04 09:36:26;;;;;;;0.00;0.00;;;29.30;91.70;;;;;;4940381;28;20048;-83
2022/08/04 09:39:05;;;;;;;0.00;0.00;;;29.40;90.80;;;;;;4951490;28;20043;-85
2022/08/04 09:41:39;;;;;;;0.00;0.00;;;29.50;90.90;;;;;;4952268;28;20558;-83
2022/08/04 09:44:27;;;;;;;0.00;0.00;;;29.60;91.10;;;;;;4937427;28;20051;-84
2022/08/04 09:47:19;;;;;;;0.00;0.00;;;29.60;91.40;;;;;;4954476;28;20061;-84
2022/08/04 09:49:54;;;;;;;0.00;0.00;;;29.80;91.70;;;;;;4956666;28;20040;-84
2022/08/04 09:52:30;;;;;;;0.00;0.00;;;29.90;91.70;;;;;;4950933;28;20226;-84
2022/08/04 09:55:07;;;;;;;0.00;0.00;;;30.00;90.60;;;;;;4951853;28;20043;-84
2022/08/04 09:57:44;;;;;;;0.00;0.00;;;30.00;90.80;;;;;;4959760;28;20110;-82
2022/08/04 10:00:15;;;;;;;0.00;0.00;;;30.10;91.00;;;;;;4958560;28;20043;-83
2022/08/04 10:02:46;;;;;;;0.00;0.00;;;30.00;90.30;;;;;;4949963;28;20051;-83
2022/08/04 10:05:18;;;;;;;0.00;0.00;;;30.10;90.00;;;;;;4951546;28;20039;-82
2022/08/04 10:08:02;;;;;;;0.00;0.00;;;30.30;90.20;;;;;;4935228;29;20055;-82
2022/08/04 10:10:55;;;;;;;0.00;0.00;;;30.40;89.20;;;;;;4951041;28;20058;-83
2022/08/04 10:13:25;;;;;;;;;;;30.40;90.40;;;;;;4930735;28;20047;-83
2022/08/04 10:16:04;;;;;;;0.00;0.00;;;30.40;90.20;;;;;;4954115;28;19926;-82
2022/08/04 10:18:47;;;;;;;0.00;0.00;;;30.50;90.50;;;;;;4934093;28;20094;-82
2022/08/04 10:26:33;;;;;;;0.00;0.00;;;30.70;90.60;;;;;;4949602;28;20067;-83
2022/08/04 10:29:05;;;;;;;0.00;0.00;;;30.80;90.00;;;;;;4949086;28;21656;-85
2022/08/04 10:31:35;;;;;;;0.00;0.00;;;30.80;90.00;;;;;;4943905;28;20662;-87
2022/08/04 10:34:10;;;;;;;0.00;0.00;;;31.10;90.10;;;;;;4931031;29;20047;-86
2022/08/04 10:36:43;;;;;;;0.00;0.00;;;30.90;86.60;;;;;;4929288;29;20054;-86
2022/08/04 10:39:15;;;;;;;0.00;0.00;;;31.00;88.80;;;;;;4930240;29;20628;-83
2022/08/04 10:42:13;;;;;;;0.00;0.00;;;31.10;87.40;;;;;;4930568;29;20043;-86
2022/08/04 10:44:54;;;;;;;0.00;0.00;;;31.10;86.00;;;;;;4961294;28;20055;-86
2022/08/04 10:47:29;;;;;;;0.00;0.00;;;31.10;88.20;;;;;;4927710;29;20050;-85
2022/08/04 10:50:00;;;;;;;0.00;0.00;;;31.20;86.30;;;;;;4931614;29;20505;-85
2022/08/04 10:52:32;;;;;;;0.00;0.00;;;31.30;86.60;;;;;;4926152;29;20091;-83
2022/08/04 10:55:07;;;;;;;0.00;0.00;;;31.40;84.40;;;;;;4932631;29;20492;-87
2022/08/04 10:57:40;;;;;;;0.00;0.00;;;31.40;83.80;;;;;;4932679;29;20058;-84
2022/08/04 11:00:13;;;;;;;0.00;0.00;;;31.90;84.50;;;;;;4936819;29;20055;-86
2022/08/04 11:02:49;;;;;;;0.00;0.00;;;31.50;81.30;;;;;;4942600;28;20465;-86
2022/08/04 11:05:24;;;;;;;0.00;0.00;;;31.60;81.70;;;;;;4961780;28;20094;-86
2022/08/04 11:08:00;;;;;;;0.00;0.00;;;31.60;81.10;;;;;;4935837;29;20712;-85
2022/08/04 11:10:31;;;;;;;0.00;0.00;;;31.70;83.10;;;;;;4941531;28;20078;-86
2022/08/04 11:13:04;;;;;;;0.00;0.00;;;31.70;81.70;;;;;;4933193;29;20527;-84
2022/08/04 11:15:36;;;;;;;0.00;0.00;;;31.80;80.70;;;;;;4952425;28;20051;-88
2022/08/04 11:18:09;;;;;;;0.00;0.00;;;31.80;82.20;;;;;;4957416;28;20052;-87
2022/08/04 11:20:49;;;;;;;0.00;0.00;;;31.70;82.10;;;;;;4934513;29;20501;-86
2022/08/04 11:23:19;;;;;;;0.00;0.00;;;31.90;81.20;;;;;;4931501;29;20047;-86
2022/08/04 11:25:52;;;;;;;0.00;0.00;;;31.80;81.80;;;;;;4931163;29;20040;-86
2022/08/04 11:28:35;;;;;;;0.00;0.00;;;31.80;83.00;;;;;;4926571;29;20058;-86
2022/08/04 11:31:05;;;;;;;0.00;0.00;;;31.80;80.20;;;;;;4933462;29;20055;-82
2022/08/04 11:33:39;;;;;;;0.00;0.00;;;31.90;81.80;;;;;;4945930;28;20048;-88
2022/08/04 11:36:14;;;;;;;0.00;0.00;;;31.90;81.80;;;;;;4932894;29;20060;-86
2022/08/04 11:38:46;;;;;;;0.00;0.00;;;32.30;82.30;;;;;;4932633;29;20048;-84
2022/08/04 11:41:37;;;;;;;0.00;0.00;;;32.20;80.00;;;;;;4935041;29;20048;-87
2022/08/04 11:44:10;;;;;;;0.00;0.00;;;32.60;81.50;;;;;;4946043;28;20523;-87
2022/08/04 11:46:41;;;;;;;0.00;0.00;;;32.30;82.90;;;;;;4932983;29;20059;-83
2022/08/04 11:49:15;;;;;;;0.00;0.00;;;32.40;81.20;;;;;;4931177;29;20047;-85
2022/08/04 11:51:43;;;;;;;0.00;0.00;;;32.50;81.80;;;;;;4929205;29;20059;-88
2022/08/04 11:54:11;;;;;;;0.00;0.00;;;32.50;80.90;;;;;;4934615;29;20122;-87
2022/08/04 11:56:38;;;;;;;0.00;0.00;;;32.70;80.20;;;;;;4930911;29;20051;-87
2022/08/04 11:59:09;;;;;;;0.00;0.00;;;32.90;81.60;;;;;;4934205;29;20299;-86
2022/08/04 12:01:58;;;;;;;0.00;0.00;;;32.90;78.10;;;;;;4946547;28;20044;-87
2022/08/04 12:04:41;;;;;;;0.00;0.00;;;32.80;78.50;;;;;;4932740;29;20111;-87
2022/08/04 12:07:16;;;;;;;0.00;0.00;;;33.00;78.40;;;;;;4931543;29;20412;-87
2022/08/04 12:10:20;;;;;;;0.00;0.00;;;33.20;78.30;;;;;;4931519;29;20058;-87
2022/08/04 12:13:14;;;;;;;0.00;0.00;;;33.30;75.90;;;;;;4930980;29;20118;-87
2022/08/04 12:15:54;;;;;;;0.00;0.00;;;33.30;77.30;;;;;;4930454;29;20035;-87
2022/08/04 12:18:29;;;;;;;0.00;0.00;;;33.30;75.40;;;;;;4931886;29;20058;-85
2022/08/04 12:21:03;;;;;;;0.00;0.00;;;33.30;78.10;;;;;;4935439;29;20051;-84
2022/08/04 12:23:36;;;;;;;0.00;0.00;;;33.50;80.30;;;;;;4928288;29;20047;-87
2022/08/04 12:26:06;;;;;;;0.00;0.00;;;33.40;74.50;;;;;;4931595;29;20505;-86
2022/08/04 12:28:36;;;;;;;0.00;0.00;;;33.50;73.90;;;;;;4945869;28;20050;-81
2022/08/04 12:31:28;;;;;;;0.00;0.00;;;33.40;73.70;;;;;;4934844;29;20047;-80
2022/08/04 12:34:01;;;;;;;0.00;0.00;;;33.30;74.40;;;;;;4929710;29;20559;-87
2022/08/04 12:36:36;;;;;;;0.00;0.00;;;33.50;75.40;;;;;;4931468;29;20047;-86
2022/08/04 12:39:10;;;;;;;0.00;0.00;;;33.60;79.10;;;;;;4931887;29;20057;-86
2022/08/04 12:41:41;;;;;;;0.00;0.00;;;34.90;77.90;;;;;;4928633;29;20047;-83
2022/08/04 12:44:11;;;;;;;0.00;0.00;;;33.90;75.70;;;;;;4929832;29;20039;-87
2022/08/04 12:47:01;;;;;;;0.00;0.00;;;34.40;78.10;;;;;;4946844;28;20075;-85
2022/08/04 12:49:49;;;;;;;0.00;0.00;;;33.80;74.80;;;;;;4947122;28;20462;-87
2022/08/04 12:52:27;;;;;;;0.00;0.00;;;33.70;73.20;;;;;;4933340;29;20420;-86
2022/08/04 12:55:16;;;;;;;0.00;0.00;;;33.40;75.60;;;;;;4939204;29;20055;-86
2022/08/04 12:57:44;;;;;;;;;;;33.30;77.90;;;;;;4968890;28;20051;-86
2022/08/04 13:00:22;;;;;;;0.00;0.00;;;33.30;75.40;;;;;;4952195;28;19923;-86
2022/08/04 13:03:05;;;;;;;0.00;0.00;;;33.30;75.90;;;;;;4935898;29;20098;-85
2022/08/04 13:05:38;;;;;;;0.00;0.00;;;33.50;73.40;;;;;;4935310;29;20055;-85
2022/08/04 13:08:06;;;;;;;0.00;0.00;;;33.50;73.70;;;;;;4939374;29;20121;-87
2022/08/04 13:10:38;;;;;;;0.00;0.00;;;33.60;74.10;;;;;;4934097;29;20054;-82
2022/08/04 13:13:12;;;;;;;0.00;0.00;;;33.60;76.10;;;;;;4933516;29;20129;-86
2022/08/04 13:15:39;;;;;;;0.00;0.00;;;33.50;76.40;;;;;;4948687;28;20098;-86
2022/08/04 13:18:29;;;;;;;0.00;0.00;;;33.60;73.30;;;;;;4927578;29;20062;-87
2022/08/04 13:21:20;;;;;;;0.00;0.00;;;33.60;71.80;;;;;;4946473;28;20535;-87
2022/08/04 13:24:12;;;;;;;0.00;0.00;;;34.00;73.20;;;;;;4933026;29;20075;-89
2022/08/04 13:26:54;;;;;;;0.00;0.00;;;33.80;71.20;;;;;;4935095;29;20475;-82
2022/08/04 13:29:25;;;;;;;0.00;0.00;;;33.80;68.00;;;;;;4935359;29;20094;-86
2022/08/04 13:32:16;;;;;;;0.00;0.00;;;33.90;67.80;;;;;;4943088;29;20051;-87
2022/08/04 13:34:46;;;;;;;0.00;0.00;;;33.80;66.00;;;;;;4942099;28;20460;-87
2022/08/04 13:37:22;;;;;;;0.00;0.00;;;34.10;67.90;;;;;;4932534;29;20051;-86
2022/08/04 13:39:50;;;;;;;0.00;0.00;;;34.10;68.40;;;;;;4931515;29;20139;-85
2022/08/04 13:42:33;;;;;;;0.00;0.00;;;34.30;61.60;;;;;;4925886;29;20411;-84
2022/08/04 13:45:05;;;;;;;0.00;0.00;;;33.90;61.30;;;;;;4935751;29;20504;-87
2022/08/04 13:47:36;;;;;;;0.00;0.00;;;33.90;61.90;;;;;;4950367;28;20048;-87
2022/08/04 13:50:19;;;;;;;0.00;0.00;;;33.90;62.50;;;;;;4949008;28;20054;-87
2022/08/04 13:52:46;;;;;;;0.00;0.00;;;34.20;63.50;;;;;;4946731;28;20058;-88